Thunder radar more information blitzortung!


Radar de pluja more information rain snow radar


Visita la nostra xarxa de llocs de meteo:

Template documentation
and downloads

And another site



No particular awareness of the weather is required.    There are no Weather-warnings

Pagina Historial Weather Underground text

Diari Resum Setembre 27, 2017 Unitats:  Imperial    Mètric   Tant
« Previous Dia
SegĂźent Dia »
Diari Setmana Mensual Anual Personalitzada
  Maxima: Minima: Media:
Temperatura: TemperatureC °F 15.0 °F 21 °F
Punt de rosada: DewpointC °F 11.9 °F 13.7 °F
Humitat: Humidity % 50 % 64 %
Wind Speed: WindSpeedKMH mph 0.0 mph 5.8 mph
RĂ fegues de vent: WindSpeedGustKMH mph - -
Vent:- - SSW
Pression baro: PressurehPa in 1019.9 in -
Precipitacions: 0.0 in    
Historical Graphs
 
 
Dades de taula per Setembre 27, 2017
Temps Temperatura Punt de rosada Pression baro Vent Wind Speed RĂ fegues de vent Humitat Rainfall Rate (Hourly)
TemperatureC °F DewpointC °F PressurehPa in Calm     Humidity % HourlyPrecipMM in
00:02 19.2 °F 13.6 °F 1022.9 in WSW 3.7 mph 3.7 mph 70 % 0.0 in
00:05 16.3 °F 12.4 °F 1021.9 in Calm   3.2 mph 78 % 0.0 in
00:07 19.2 °F 13.6 °F 1022.9 in WSW 1.9 mph   70 % 0.0 in
00:12 19.2 °F 13.6 °F 1022.9 in SW 2.3 mph 2.3 mph 70 % 0.0 in
00:15 16.2 °F 12.6 °F 1022.9 in Calm     79 % 0.0 in
00:25 16.1 °F 12.4 °F 1022.9 in Calm     79 % 0.0 in
00:35 15.9 °F 12.3 °F 1022.9 in South 1.6 mph 3.2 mph 79 % 0.0 in
00:45 15.7 °F 12.1 °F 1022.9 in SW 3.2 mph 3.2 mph 79 % 0.0 in
00:55 15.6 °F 12.2 °F 1022.9 in Calm     80 % 0.0 in
01:05 15.5 °F 12.3 °F 1022.9 in Calm     81 % 0.0 in
01:15 15.4 °F 12.2 °F 1022.9 in Calm   1.6 mph 81 % 0.0 in
01:25 15.4 °F 12.3 °F 1022.9 in Calm     82 % 0.0 in
01:35 15.3 °F 12.2 °F 1022.9 in Calm     82 % 0.0 in
01:45 15.2 °F 12.2 °F 1022.9 in WSW 1.6 mph 3.2 mph 82 % 0.0 in
01:55 15.0 °F 11.9 °F 1021.9 in Calm   1.6 mph 82 % 0.0 in
02:05 15.0 °F 12.1 °F 1021.9 in SW 1.6 mph 3.2 mph 83 % 0.0 in
02:15 15.1 °F 12.2 °F 1021.9 in Calm     83 % 0.0 in
02:25 15.0 °F 12.1 °F 1022.9 in Calm     83 % 0.0 in
02:35 15.0 °F 12.1 °F 1022.9 in Calm     83 % 0.0 in
02:45 15.0 °F 12.1 °F 1022.9 in Calm     83 % 0.0 in
02:55 15.0 °F 12.3 °F 1022.9 in Calm   1.6 mph 84 % 0.0 in
03:05 15.0 °F 12.3 °F 1022.9 in Calm     84 % 0.0 in
03:15 15.1 °F 12.4 °F 1022.9 in NE 1.6 mph 1.6 mph 84 % 0.0 in
03:25 15.4 °F 12.7 °F 1022.9 in Calm     84 % 0.0 in
03:35 15.5 °F 12.8 °F 1022.9 in NE 1.6 mph 3.2 mph 84 % 0.0 in
03:45 15.6 °F 12.9 °F 1023.9 in Calm   1.6 mph 84 % 0.0 in
03:55 15.5 °F 12.6 °F 1023.9 in Calm     83 % 0.0 in
04:05 15.3 °F 12.4 °F 1023.9 in NE 1.6 mph 3.2 mph 83 % 0.0 in
04:15 15.3 °F 12.4 °F 1023.9 in Calm   1.6 mph 83 % 0.0 in
04:25 15.4 °F 12.5 °F 1023.9 in WSW 1.6 mph 3.2 mph 83 % 0.0 in
04:35 15.8 °F 13.1 °F 1023.9 in Calm   1.6 mph 84 % 0.0 in
04:45 16.0 °F 13.1 °F 1023.9 in ENE 3.2 mph 4.8 mph 83 % 0.0 in
04:55 17.2 °F 14.1 °F 1023.9 in ENE 3.2 mph 3.2 mph 82 % 0.0 in
05:05 18.0 °F 14.5 °F 1023.9 in Calm   3.2 mph 80 % 0.0 in
05:15 18.3 °F 14.4 °F 1023.9 in ENE 1.6 mph 3.2 mph 78 % 0.0 in
05:25 19.2 °F 15.1 °F 1023.9 in Calm   3.2 mph 77 % 0.0 in
05:35 19.6 °F 15.3 °F 1023.9 in South 1.6 mph 3.2 mph 76 % 0.0 in
05:45 20.3 °F 15.3 °F 1023.9 in SSW 1.6 mph 3.2 mph 73 % 0.0 in
05:55 20.8 °F 15.6 °F 1022.9 in South 1.6 mph 4.8 mph 72 % 0.0 in
06:05 21.4 °F 15.9 °F 1022.9 in SSW 3.2 mph 4.8 mph 71 % 0.0 in
06:15 21.6 °F 15.9 °F 1023.9 in SW 3.2 mph 6.4 mph 70 % 0.0 in
11:15 21.8 °F 15.8 °F 1023.9 in West 5.8 mph 5.8 mph 69 % 0.0 in
11:20 21.9 °F 15.9 °F 1023.9 in South 5.6 mph 5.6 mph 69 % 0.0 in
11:25 22.2 °F 15.8 °F 1023.9 in South 6.1 mph 6.1 mph 67 % 0.0 in
11:30 22.3 °F 15.7 °F 1023.9 in WSW 7.4 mph 7.4 mph 66 % 0.0 in
11:35 23.0 °F 15.8 °F 1023.9 in SSW 3.9 mph 3.9 mph 64 % 0.0 in
11:40 23.0 °F 16.1 °F 1023.9 in ENE 3.7 mph 3.7 mph 65 % 0.0 in
11:45 23.3 °F 16.1 °F 1023.9 in WSW 4.7 mph 4.7 mph 64 % 0.0 in
11:50 23.4 °F 15.9 °F 1023.9 in South 7.4 mph 7.4 mph 63 % 0.0 in
11:55 23.3 °F 15.8 °F 1023.9 in WSW 9.3 mph 9.3 mph 63 % 0.0 in
12:00 23.2 °F 15.5 °F 1023.9 in West 5.6 mph 5.6 mph 62 % 0.0 in
12:05 23.9 °F 15.7 °F 1023.9 in SSW 5.6 mph 5.6 mph 60 % 0.0 in
12:10 24.7 °F 15.6 °F 1023.9 in SSE 7.4 mph 7.4 mph 57 % 0.0 in
12:11 24.7 °F 15.6 °F 1023.9 in South 7.4 mph 7.4 mph 57 % 0.0 in
12:16 24.2 °F 14.9 °F 1023.9 in SSE 16.1 mph 16.1 mph 56 % 0.0 in
12:21 24.3 °F 15.5 °F 1023.9 in West 3.7 mph 3.7 mph 58 % 0.0 in
12:26 24.3 °F 15.5 °F 1023.9 in South 5.6 mph 5.6 mph 58 % 0.0 in
12:31 24.4 °F 15.1 °F 1023.9 in South 11.1 mph 11.1 mph 56 % 0.0 in
12:36 24.3 °F 14.9 °F 1022.9 in West 11.1 mph 11.1 mph 56 % 0.0 in
12:41 24.0 °F 14.7 °F 1022.9 in SW 7.4 mph 7.4 mph 56 % 0.0 in
12:46 24.1 °F 14.8 °F 1022.9 in SW 5.6 mph 5.6 mph 56 % 0.0 in
12:51 24.5 °F 15.2 °F 1022.9 in WNW 5.6 mph 5.6 mph 56 % 0.0 in
12:56 24.9 °F 14.9 °F 1022.9 in SW 3.7 mph 3.7 mph 54 % 0.0 in
13:01 25.3 °F 15.1 °F 1022.9 in SSE 5.8 mph 5.8 mph 53 % 0.0 in
13:06 25.4 °F 15.1 °F 1022.9 in ESE 9.3 mph 9.3 mph 53 % 0.0 in
13:11 25.6 °F 14.7 °F 1022.9 in SE 7.4 mph 7.4 mph 51 % 0.0 in
13:16 25.8 °F 14.9 °F 1022.9 in SE 5.6 mph 5.6 mph 51 % 0.0 in
13:21 26.2 °F 14.9 °F 1021.9 in SW 10.0 mph 10.0 mph 50 % 0.0 in
13:26 25.5 °F 14.6 °F 1021.9 in SSW 7.6 mph 7.6 mph 51 % 0.0 in
13:27 25.5 °F 14.3 °F 1021.9 in SE 5.3 mph 5.3 mph 50 % 0.0 in
13:32 25.3 °F 14.4 °F 1022.9 in South 7.4 mph 7.4 mph 51 % 0.0 in
13:37 25.0 °F 14.2 °F 1022.9 in WNW 7.4 mph 7.4 mph 51 % 0.0 in
13:42 24.6 °F 14.1 °F 1022.9 in SSW 5.6 mph 5.6 mph 52 % 0.0 in
13:47 24.5 °F 14.0 °F 1021.9 in South 3.7 mph 3.7 mph 52 % 0.0 in
13:52 24.5 °F 14.0 °F 1021.9 in SSW 3.9 mph 3.9 mph 52 % 0.0 in
13:57 24.4 °F 14.2 °F 1021.9 in SSE 3.7 mph 3.7 mph 53 % 0.0 in
14:02 24.2 °F 14.0 °F 1022.9 in WSW 7.4 mph 7.4 mph 53 % 0.0 in
14:07 24.1 °F 13.6 °F 1022.9 in South 3.9 mph 3.9 mph 52 % 0.0 in
14:12 24.0 °F 13.8 °F 1022.9 in West 3.7 mph 3.7 mph 53 % 0.0 in
14:17 24.0 °F 13.8 °F 1021.9 in ESE 3.2 mph 3.5 mph 53 % 0.0 in
14:22 23.6 °F 14.1 °F 1021.9 in ESE 9.7 mph 9.7 mph 55 % 0.0 in
14:27 23.2 °F 13.9 °F 1021.9 in ENE 11.1 mph 11.1 mph 56 % 0.0 in
14:32 22.8 °F 13.6 °F 1022.9 in ESE 14.8 mph 14.8 mph 56 % 0.0 in
14:37 22.8 °F 13.8 °F 1022.9 in East 11.9 mph 11.9 mph 57 % 0.0 in
14:42 22.6 °F 13.9 °F 1022.9 in East 11.1 mph 11.1 mph 58 % 0.0 in
14:47 22.6 °F 13.9 °F 1021.9 in East 9.3 mph 9.3 mph 58 % 0.0 in
14:52 22.5 °F 13.8 °F 1021.9 in East 11.1 mph 11.1 mph 58 % 0.0 in
14:57 22.4 °F 13.7 °F 1021.9 in ESE 11.1 mph 11.1 mph 58 % 0.0 in
15:02 22.6 °F 14.2 °F 1021.9 in ESE 9.3 mph 9.3 mph 59 % 0.0 in
15:07 22.9 °F 14.4 °F 1021.9 in East 7.4 mph 7.4 mph 59 % 0.0 in
15:12 22.9 °F 14.4 °F 1021.9 in ESE 13.0 mph 13.0 mph 59 % 0.0 in
15:17 22.7 °F 14.3 °F 1021.9 in ESE 11.1 mph 11.1 mph 59 % 0.0 in
15:22 22.9 °F 14.2 °F 1021.9 in ESE 9.3 mph 9.3 mph 58 % 0.0 in
15:27 23.5 °F 14.5 °F 1021.9 in SW 13.0 mph 13.0 mph 57 % 0.0 in
15:32 24.9 °F 15.2 °F 1021.9 in SSE 5.6 mph 5.6 mph 55 % 0.0 in
15:37 24.4 °F 14.2 °F 1021.9 in SSE 5.6 mph 5.6 mph 53 % 0.0 in
15:42 24.8 °F 14.8 °F 1021.9 in SW 11.1 mph 11.1 mph 54 % 0.0 in
15:47 25.3 °F 15.1 °F 1020.9 in SW 5.6 mph 5.6 mph 53 % 0.0 in
15:52 25.1 °F 14.6 °F 1020.9 in South 7.4 mph 7.4 mph 52 % 0.0 in
15:57 24.9 °F 14.7 °F 1020.9 in SW 9.3 mph 9.3 mph 53 % 0.0 in
16:02 25.4 °F 14.8 °F 1021.9 in South 9.3 mph 9.3 mph 52 % 0.0 in
16:07 25.1 °F 14.3 °F 1021.9 in South 14.8 mph 14.8 mph 51 % 0.0 in
16:12 25.1 °F 14.3 °F 1021.9 in West 13.0 mph 13.0 mph 51 % 0.0 in
16:17 24.6 °F 14.1 °F 1021.9 in WSW 9.3 mph 9.3 mph 52 % 0.0 in
16:22 25.0 °F 14.2 °F 1021.9 in South 11.1 mph 11.1 mph 51 % 0.0 in
16:27 25.1 °F 14.3 °F 1021.9 in SW 13.0 mph 13.0 mph 51 % 0.0 in
16:32 25.3 °F 14.1 °F 1020.9 in SW 11.1 mph 11.1 mph 50 % 0.0 in
16:37 25.3 °F 14.1 °F 1020.9 in SSW 5.6 mph 5.6 mph 50 % 0.0 in
16:42 25.3 °F 14.1 °F 1020.9 in SSW 20.4 mph 20.4 mph 50 % 0.0 in
16:47 25.0 °F 13.8 °F 1020.9 in SW 13.0 mph 13.0 mph 50 % 0.0 in
16:52 25.3 °F 14.1 °F 1020.9 in SW 9.3 mph 9.3 mph 50 % 0.0 in
16:57 25.0 °F 13.8 °F 1020.9 in SW 16.7 mph 16.7 mph 50 % 0.0 in
17:02 25.2 °F 14.1 °F 1020.9 in SSW 11.1 mph 11.1 mph 50 % 0.0 in
17:07 25.4 °F 14.2 °F 1020.9 in SW 9.3 mph 9.3 mph 50 % 0.0 in
17:12 25.0 °F 13.8 °F 1020.9 in WSW 14.8 mph 14.8 mph 50 % 0.0 in
17:17 25.0 °F 13.8 °F 1020.9 in SW 13.0 mph 13.0 mph 50 % 0.0 in
17:22 25.0 °F 13.8 °F 1020.9 in SSW 14.8 mph 14.8 mph 50 % 0.0 in
17:27 24.9 °F 14.1 °F 1020.9 in WSW 9.3 mph 9.3 mph 51 % 0.0 in
17:32 25.0 °F 13.8 °F 1020.9 in West 9.3 mph 9.3 mph 50 % 0.0 in
17:33 24.9 °F 14.1 °F 1020.9 in SSW 10.0 mph 10.0 mph 51 % 0.0 in
17:38 24.7 °F 13.9 °F 1020.9 in SSW 13.0 mph 13.0 mph 51 % 0.0 in
17:43 24.4 °F 13.6 °F 1020.9 in WSW 13.0 mph 13.0 mph 51 % 0.0 in
17:48 24.4 °F 13.6 °F 1019.9 in SW 9.3 mph 9.3 mph 51 % 0.0 in
17:53 24.3 °F 13.5 °F 1019.9 in WSW 13.0 mph 13.0 mph 51 % 0.0 in
17:58 24.2 °F 13.7 °F 1019.9 in SSW 16.7 mph 16.7 mph 52 % 0.0 in
18:03 24.1 °F 13.6 °F 1019.9 in WSW 5.6 mph 5.6 mph 52 % 0.0 in
18:08 24.1 °F 13.6 °F 1019.9 in West 11.4 mph 11.4 mph 52 % 0.0 in
18:13 24.0 °F 13.6 °F 1019.9 in SW 13.0 mph 13.0 mph 52 % 0.0 in
18:18 23.8 °F 13.3 °F 1019.9 in South 9.3 mph 9.3 mph 52 % 0.0 in
18:23 23.4 °F 13.0 °F 1019.9 in SW 14.8 mph 14.8 mph 52 % 0.0 in
18:28 23.3 °F 12.9 °F 1019.9 in SW 9.3 mph 9.3 mph 52 % 0.0 in
18:33 23.3 °F 12.9 °F 1019.9 in SW 16.7 mph 16.7 mph 52 % 0.0 in
18:38 23.1 °F 13.0 °F 1019.9 in WSW 7.9 mph 7.9 mph 53 % 0.0 in
18:43 23.0 °F 12.9 °F 1019.9 in SSW 11.1 mph 11.1 mph 53 % 0.0 in
18:48 22.8 °F 13.0 °F 1019.9 in SW 9.3 mph 9.3 mph 54 % 0.0 in
18:53 22.8 °F 13.0 °F 1019.9 in SW 9.3 mph 9.3 mph 54 % 0.0 in
18:58 22.5 °F 12.7 °F 1019.9 in WSW 13.7 mph 13.7 mph 54 % 0.0 in
19:03 22.2 °F 12.7 °F 1020.9 in SSW 13.0 mph 13.0 mph 55 % 0.0 in
19:08 22.0 °F 12.6 °F 1020.9 in South 9.5 mph 9.5 mph 55 % 0.0 in
19:13 21.9 °F 13.0 °F 1020.9 in SW 14.5 mph 14.5 mph 57 % 0.0 in
19:18 21.6 °F 12.7 °F 1020.9 in WSW 9.3 mph 9.3 mph 57 % 0.0 in
19:23 21.5 °F 12.9 °F 1020.9 in SSE 5.6 mph 5.6 mph 58 % 0.0 in
19:28 21.4 °F 12.8 °F 1020.9 in SSW 9.3 mph 9.3 mph 58 % 0.0 in
19:33 21.1 °F 12.8 °F 1021.9 in SW 14.8 mph 14.8 mph 59 % 0.0 in
19:38 21.0 °F 12.9 °F 1021.9 in SSW 13.0 mph 13.0 mph 60 % 0.0 in
19:43 20.9 °F 13.1 °F 1021.9 in SW 9.3 mph 9.3 mph 61 % 0.0 in
19:48 20.7 °F 12.9 °F 1020.9 in WSW 9.3 mph 9.3 mph 61 % 0.0 in
19:53 20.6 °F 13.1 °F 1020.9 in SW 9.3 mph 9.3 mph 62 % 0.0 in
19:58 20.5 °F 12.9 °F 1020.9 in WSW 7.4 mph 7.4 mph 62 % 0.0 in
20:03 20.4 °F 12.9 °F 1021.9 in SSW 7.4 mph 7.4 mph 62 % 0.0 in
20:08 20.4 °F 13.1 °F 1021.9 in SSW 5.6 mph 5.6 mph 63 % 0.0 in
20:13 20.2 °F 12.9 °F 1021.9 in SW 9.3 mph 9.3 mph 63 % 0.0 in
20:18 20.1 °F 13.1 °F 1021.9 in SW 7.4 mph 7.4 mph 64 % 0.0 in
20:23 20.0 °F 13.0 °F 1021.9 in SW 6.9 mph 6.9 mph 64 % 0.0 in
20:28 20.0 °F 13.2 °F 1021.9 in WSW 7.4 mph 7.4 mph 65 % 0.0 in
20:33 19.9 °F 13.3 °F 1021.9 in SW 5.6 mph 5.6 mph 66 % 0.0 in
20:38 19.8 °F 13.3 °F 1021.9 in SW 5.6 mph 5.6 mph 66 % 0.0 in
20:43 19.7 °F 13.4 °F 1021.9 in SW 5.6 mph 5.6 mph 67 % 0.0 in
20:48 19.6 °F 13.3 °F 1022.9 in SW 5.0 mph 5.0 mph 67 % 0.0 in
20:53 19.6 °F 13.3 °F 1022.9 in WSW 3.9 mph 3.9 mph 67 % 0.0 in
20:58 19.5 °F 13.4 °F 1022.9 in WSW 3.7 mph 3.7 mph 68 % 0.0 in
21:03 19.5 °F 13.4 °F 1022.9 in SW 3.7 mph 3.7 mph 68 % 0.0 in
21:08 19.4 °F 13.6 °F 1022.9 in SW 3.7 mph 3.7 mph 69 % 0.0 in
21:13 19.3 °F 13.4 °F 1022.9 in WSW 3.7 mph 3.7 mph 69 % 0.0 in
21:18 19.3 °F 13.4 °F 1022.9 in WSW 3.7 mph 3.7 mph 69 % 0.0 in
21:23 19.2 °F 13.6 °F 1022.9 in SW 3.7 mph 3.7 mph 70 % 0.0 in
21:28 19.2 °F 13.6 °F 1022.9 in SW 3.7 mph 3.7 mph 70 % 0.0 in
21:33 19.2 °F 13.6 °F 1022.9 in WSW 2.3 mph 2.3 mph 70 % 0.0 in
21:38 19.1 °F 13.7 °F 1022.9 in Calm     71 % 0.0 in
21:43 19.1 °F 13.7 °F 1022.9 in Calm     71 % 0.0 in
21:48 19.0 °F 13.6 °F 1023.9 in Calm     71 % 0.0 in
21:53 18.9 °F 13.7 °F 1023.9 in Calm     72 % 0.0 in
21:58 18.8 °F 13.7 °F 1023.9 in Calm     72 % 0.0 in
22:03 18.8 °F 13.8 °F 1023.9 in Calm     73 % 0.0 in
22:08 18.8 °F 13.8 °F 1023.9 in Calm     73 % 0.0 in
22:13 18.8 °F 13.8 °F 1023.9 in Calm     73 % 0.0 in
22:18 18.7 °F 13.8 °F 1023.9 in Calm     73 % 0.0 in
22:23 18.6 °F 13.9 °F 1023.9 in Calm     74 % 0.0 in
22:28 18.6 °F 13.9 °F 1023.9 in Calm     74 % 0.0 in
22:33 18.6 °F 13.9 °F 1023.9 in Calm     74 % 0.0 in
22:38 18.5 °F 13.8 °F 1023.9 in Calm     74 % 0.0 in
22:43 18.4 °F 13.7 °F 1023.9 in Calm     74 % 0.0 in
22:48 18.4 °F 13.9 °F 1023.9 in Calm     75 % 0.0 in
22:53 18.4 °F 13.9 °F 1023.9 in Calm     75 % 0.0 in
22:58 18.3 °F 13.8 °F 1023.9 in Calm     75 % 0.0 in
23:03 18.2 °F 13.9 °F 1023.9 in Calm     76 % 0.0 in
23:08 18.2 °F 13.9 °F 1023.9 in Calm     76 % 0.0 in
23:13 18.2 °F 13.9 °F 1023.9 in Calm     76 % 0.0 in
23:18 18.2 °F 13.7 °F 1023.9 in West 1.9 mph 1.9 mph 75 % 0.0 in
23:23 18.2 °F 13.9 °F 1023.9 in Calm     76 % 0.0 in
23:28 18.2 °F 13.9 °F 1023.9 in Calm     76 % 0.0 in
23:33 18.2 °F 13.9 °F 1023.9 in Calm     76 % 0.0 in
23:38 18.1 °F 14.0 °F 1023.9 in Calm     77 % 0.0 in
23:43 18.0 °F 13.9 °F 1023.9 in Calm     77 % 0.0 in
23:48 18.0 °F 13.9 °F 1023.9 in Calm     77 % 0.0 in
23:53 17.8 °F 13.7 °F 1023.9 in Calm     77 % 0.0 in
23:58 17.8 °F 13.7 °F 1023.9 in Calm     77 % 0.0 in
Meteo Sesrovires
Elogis d' Weather Underground - 3.5 mb

Guio original per  Jim McMurry - jmcmurry@mwt.net Adaptat per a la plantilla per  Wim van der Kuil - Leuven-Template.eu

Trobareu la nostra informacio del temps tambe a:

Weather Underground

AWEKAS